Time;durP1;ratioP1;P1;durP2;ratioP2;P2;SDS_P1;SDS_P2;PMS_P1;PMS_P2;Temp;Humidity;BMP_temperature;BMP_pressure;BME280_temperature;BME280_humidity;BME280_pressure;Samples;Min_cycle;Max_cycle;Signal;HPM_P1;HPM_P2
2022/08/29 00:02:56;;;;;;;5.10;4.70;;;;;;;18.65;85.67;99274.40;431602;1271;143794;-59
2022/08/29 00:13:04;;;;;;;4.80;4.40;;;;;;;18.62;85.74;99277.20;431386;1271;142021;-58
2022/08/29 00:23:10;;;;;;;4.10;3.70;;;;;;;18.58;86.03;99276.36;430562;1271;142981;-58
2022/08/29 00:33:16;;;;;;;4.30;3.90;;;;;;;18.46;86.28;99273.44;431114;1271;144568;-57
2022/08/29 00:43:25;;;;;;;5.00;4.60;;;;;;;18.33;86.70;99275.12;431576;1271;142642;-59
2022/08/29 00:53:36;;;;;;;5.00;4.50;;;;;;;18.26;87.29;99277.44;430701;1271;142925;-58
2022/08/29 01:03:43;;;;;;;7.30;6.60;;;;;;;18.24;87.28;99279.45;431094;1271;142251;-57
2022/08/29 01:13:51;;;;;;;9.50;8.60;;;;;;;18.24;87.66;99283.80;429810;1271;146853;-57
2022/08/29 01:24:04;;;;;;;8.20;7.50;;;;;;;18.22;87.91;99286.17;431152;1271;142941;-56
2022/08/29 01:34:11;;;;;;;9.70;8.80;;;;;;;18.11;87.90;99294.89;431235;1271;142621;-58
2022/08/29 01:44:19;;;;;;;9.10;8.30;;;;;;;18.04;88.09;99309.70;430047;1271;143076;-57
2022/08/29 01:54:24;;;;;;;9.50;8.50;;;;;;;18.02;88.20;99319.81;430589;1271;143483;-57
2022/08/29 02:04:31;;;;;;;11.80;10.10;;;;;;;17.98;88.23;99323.39;431206;1271;142503;-58
2022/08/29 02:14:37;;;;;;;10.50;9.50;;;;;;;17.92;88.74;99333.73;430395;1271;142007;-57
2022/08/29 02:24:44;;;;;;;11.90;10.30;;;;;;;17.84;88.94;99337.68;430757;1271;143272;-57
2022/08/29 02:34:49;;;;;;;10.00;9.00;;;;;;;17.79;89.15;99339.25;431045;1271;142895;-58
2022/08/29 02:44:55;;;;;;;9.60;8.80;;;;;;;17.73;89.44;99349.22;430802;1271;148378;-56
2022/08/29 02:55:01;;;;;;;12.00;10.90;;;;;;;17.70;89.69;99352.48;430541;1271;147798;-57
2022/08/29 03:05:08;;;;;;;13.20;12.00;;;;;;;17.64;90.05;99359.29;430328;1271;165014;-58
2022/08/29 03:15:15;;;;;;;13.80;12.50;;;;;;;17.55;90.11;99360.65;431042;1271;142930;-60
2022/08/29 03:25:21;;;;;;;14.20;13.00;;;;;;;17.49;89.87;99367.98;431134;1271;143444;-58
2022/08/29 03:35:27;;;;;;;12.80;11.50;;;;;;;17.46;89.85;99383.33;430719;1271;141677;-58
2022/08/29 03:45:33;;;;;;;12.70;11.50;;;;;;;17.41;89.70;99391.02;431521;1271;149383;-58
2022/08/29 03:55:39;;;;;;;27.70;10.20;;;;;;;17.42;89.56;99408.95;431098;1271;142721;-57
2022/08/29 04:05:45;;;;;;;11.00;9.90;;;;;;;17.40;89.28;99427.04;430521;1271;143546;-57
2022/08/29 04:15:55;;;;;;;11.70;9.80;;;;;;;17.36;88.98;99438.42;430414;1274;145796;-57
2022/08/29 04:26:01;;;;;;;12.30;9.90;;;;;;;17.28;88.55;99444.39;430510;1271;147632;-55
2022/08/29 04:36:28;;;;;;;10.40;9.40;;;;;;;17.09;88.29;99455.45;431089;1271;141742;-59
2022/08/29 04:46:34;;;;;;;11.40;10.20;;;;;;;17.01;88.61;99461.81;431643;1271;146792;-59
2022/08/29 04:56:40;;;;;;;12.10;10.50;;;;;;;17.05;88.60;99467.45;429638;1271;142731;-54
2022/08/29 05:06:52;;;;;;;9.40;8.60;;;;;;;17.23;88.08;99479.02;431352;1271;146318;-55
2022/08/29 05:16:57;;;;;;;9.40;8.40;;;;;;;17.26;87.75;99494.69;430702;1271;148174;-57
2022/08/29 05:27:09;;;;;;;9.10;7.00;;;;;;;18.24;87.34;99497.16;430486;1271;144427;-56
2022/08/29 05:37:18;;;;;;;5.80;4.00;;;;;;;24.52;78.75;99501.39;433645;1271;142573;-57
2022/08/29 05:47:24;;;;;;;10.20;4.30;;;;;;;29.56;67.01;99505.30;429928;1271;147730;-57
2022/08/29 05:57:30;;;;;;;5.50;3.00;;;;;;;32.35;55.74;99511.43;438155;1271;145312;-58
2022/08/29 06:07:35;;;;;;;3.90;2.70;;;;;;;34.15;50.26;99511.07;440970;1273;142044;-58
2022/08/29 06:17:41;;;;;;;4.80;2.50;;;;;;;34.02;43.74;99514.60;430206;1271;202014;-59
2022/08/29 06:27:47;;;;;;;4.50;2.90;;;;;;;35.97;40.72;99535.30;431497;1271;142142;-57
2022/08/29 06:37:53;;;;;;;4.90;3.40;;;;;;;35.07;38.06;99544.58;429115;1271;1523439;-58
2022/08/29 06:47:59;;;;;;;3.10;2.80;;;;;;;36.04;37.89;99558.61;431072;1271;147855;-57
2022/08/29 06:58:05;;;;;;;4.40;2.90;;;;;;;38.43;34.55;99563.84;431061;1271;199734;-58
2022/08/29 07:08:10;;;;;;;3.10;2.50;;;;;;;38.67;31.73;99578.58;430914;1271;147955;-57
2022/08/29 07:18:16;;;;;;;3.50;2.40;;;;;;;40.21;30.13;99581.96;431204;1271;142499;-57
2022/08/29 07:28:22;;;;;;;4.60;2.60;;;;;;;41.90;28.28;99577.26;430929;1271;141529;-57
2022/08/29 07:38:29;;;;;;;4.90;2.40;;;;;;;41.51;25.83;99578.90;430571;1271;147215;-57
2022/08/29 07:48:35;;;;;;;3.20;2.30;;;;;;;41.11;25.55;99591.36;431390;1271;142980;-57
2022/08/29 07:58:42;;;;;;;6.50;3.00;;;;;;;41.40;24.30;99599.92;430766;1271;141740;-57
2022/08/29 08:08:48;;;;;;;5.30;3.00;;;;;;;41.17;24.63;99608.67;431868;1271;143944;-57
2022/08/29 08:18:55;;;;;;;5.80;2.70;;;;;;;41.92;23.41;99618.08;430769;1271;141593;-58
2022/08/29 08:29:00;;;;;;;4.10;2.40;;;;;;;42.49;22.64;99623.16;431253;1271;145425;-58
2022/08/29 08:39:06;;;;;;;4.50;2.50;;;;;;;36.64;25.15;99619.81;431562;1271;142125;-59
2022/08/29 08:49:18;;;;;;;6.60;2.40;;;;;;;30.20;30.35;99618.23;431291;1271;141652;-59
2022/08/29 08:59:33;;;;;;;3.40;2.10;;;;;;;27.54;34.04;99619.20;429962;1271;144313;-57
2022/08/29 09:09:55;;;;;;;4.90;2.00;;;;;;;26.75;35.66;99620.59;430725;1272;183358;-57
2022/08/29 09:20:02;;;;;;;6.90;3.00;;;;;;;25.66;37.74;99625.50;430247;1271;146709;-58
2022/08/29 09:30:09;;;;;;;;;;;;;;;26.09;38.31;99633.77;430939;1271;145533;-57
2022/08/29 09:40:17;;;;;;;5.80;2.30;;;;;;;25.45;38.58;99636.30;431207;1270;127494;-57
2022/08/29 09:50:27;;;;;;;8.90;2.30;;;;;;;24.42;39.88;99637.74;431100;1271;147654;-58
2022/08/29 10:00:36;;;;;;;5.00;3.20;;;;;;;23.44;41.40;99631.77;431260;1271;147011;-58
2022/08/29 10:10:53;;;;;;;3.30;2.50;;;;;;;23.60;42.12;99633.29;431106;1271;145937;-57
2022/08/29 10:21:19;;;;;;;8.40;2.70;;;;;;;23.44;42.24;99633.36;430693;1271;145620;-57
2022/08/29 10:31:33;;;;;;;9.10;3.40;;;;;;;23.15;42.27;99633.19;431494;1271;142086;-57
2022/08/29 10:41:49;;;;;;;2.90;1.70;;;;;;;23.17;42.37;99635.86;430334;1271;143201;-57
2022/08/29 10:52:10;;;;;;;3.50;1.90;;;;;;;23.05;42.29;99631.65;430878;1271;142318;-57
2022/08/29 11:02:27;;;;;;;6.90;2.20;;;;;;;22.96;42.26;99625.74;430629;1272;146642;-56
2022/08/29 11:12:43;;;;;;;8.30;2.50;;;;;;;22.95;42.41;99629.09;431034;1271;142330;-57
2022/08/29 11:22:54;;;;;;;7.30;2.30;;;;;;;22.64;42.56;99636.69;430293;1271;145072;-59
2022/08/29 11:33:13;;;;;;;4.80;2.60;;;;;;;22.77;42.83;99646.77;431289;1271;142078;-59
2022/08/29 11:43:24;;;;;;;7.20;2.70;;;;;;;22.62;42.42;99652.45;431100;1271;141796;-57
2022/08/29 11:53:36;;;;;;;4.90;2.60;;;;;;;22.65;42.50;99649.19;430289;1271;141661;-59
2022/08/29 12:03:46;;;;;;;5.40;2.80;;;;;;;22.39;42.09;99649.30;431602;1271;147412;-57
2022/08/29 12:14:05;;;;;;;8.30;2.60;;;;;;;22.17;42.33;99647.48;430583;1271;147078;-57
2022/08/29 12:24:30;;;;;;;4.70;2.20;;;;;;;22.35;42.94;99647.40;431161;1271;147294;-56
2022/08/29 12:34:49;;;;;;;4.50;1.90;;;;;;;22.46;43.23;99645.35;431268;1271;142861;-58
2022/08/29 12:45:03;;;;;;;5.00;1.80;;;;;;;23.02;43.38;99636.23;432143;1271;141951;-56
2022/08/29 12:55:24;;;;;;;3.40;1.80;;;;;;;23.16;43.22;99631.02;431338;1271;141924;-57
2022/08/29 13:05:37;;;;;;;9.50;1.90;;;;;;;23.03;42.62;99629.73;430626;1271;141768;-57
2022/08/29 13:15:43;;;;;;;4.50;1.80;;;;;;;23.04;42.77;99627.65;431053;1271;141765;-58
2022/08/29 13:25:53;;;;;;;9.60;3.30;;;;;;;22.45;42.66;99630.44;430794;1271;142418;-57
2022/08/29 13:35:58;;;;;;;6.00;2.70;;;;;;;22.48;43.54;99625.83;432273;1271;143358;-58
2022/08/29 13:46:14;;;;;;;5.60;2.20;;;;;;;22.60;43.61;99623.61;431552;1271;142284;-59
2022/08/29 13:56:27;;;;;;;7.40;2.00;;;;;;;22.97;43.90;99614.68;431445;1271;141303;-59
2022/08/29 14:06:37;;;;;;;9.40;2.30;;;;;;;22.94;44.06;99612.40;431050;1271;141736;-57
2022/08/29 14:16:43;;;;;;;5.40;2.20;;;;;;;22.64;44.61;99610.95;431222;1271;141568;-55
2022/08/29 14:26:49;;;;;;;9.40;2.90;;;;;;;22.11;45.50;99608.50;430283;1271;141469;-57
2022/08/29 14:37:06;;;;;;;4.30;3.00;;;;;;;22.32;45.96;99614.02;434625;1271;145741;-57
2022/08/29 14:47:12;;;;;;;3.90;1.90;;;;;;;22.70;45.91;99612.50;429773;1271;142030;-56
2022/08/29 14:57:18;;;;;;;4.90;1.80;;;;;;;22.95;45.21;99607.77;431289;1271;144525;-58
2022/08/29 15:07:24;;;;;;;3.20;1.60;;;;;;;22.70;45.20;99613.41;445235;1271;141712;-58
2022/08/29 15:17:30;;;;;;;4.30;1.60;;;;;;;22.56;45.98;99609.98;431624;1271;146612;-58
2022/08/29 15:27:35;;;;;;;4.50;2.30;;;;;;;22.64;46.09;99609.79;431654;1271;141919;-59
2022/08/29 15:37:42;;;;;;;2.00;1.80;;;;;;;22.68;45.95;99605.73;432144;1271;141696;-59
2022/08/29 15:47:48;;;;;;;6.20;2.60;;;;;;;22.88;45.78;99601.52;432077;1271;144083;-59
2022/08/29 15:57:54;;;;;;;14.30;2.70;;;;;;;22.98;45.72;99602.00;431067;1271;145076;-59
2022/08/29 16:08:00;;;;;;;6.60;3.50;;;;;;;22.76;46.16;99602.48;431329;1271;141706;-59
2022/08/29 16:18:06;;;;;;;4.40;1.50;;;;;;;22.22;47.06;99603.77;431307;1270;142117;-58
2022/08/29 16:28:12;;;;;;;5.20;2.20;;;;;;;21.92;47.67;99600.48;431447;1271;141249;-58
2022/08/29 16:38:18;;;;;;;8.40;3.40;;;;;;;21.52;48.52;99607.41;430975;1271;147422;-58
2022/08/29 16:48:24;;;;;;;4.40;2.80;;;;;;;21.13;49.71;99613.60;431706;1271;141940;-58
2022/08/29 17:19:00;;;;;;;5.40;2.00;;;;;;;19.86;53.63;99614.89;430721;1271;141408;-60
2022/08/29 17:29:08;;;;;;;11.40;3.50;;;;;;;19.46;54.89;99617.81;430461;1271;144373;-59
2022/08/29 17:39:14;;;;;;;4.90;2.20;;;;;;;19.12;55.85;99621.05;431437;1271;144594;-61
2022/08/29 17:49:20;;;;;;;12.70;2.20;;;;;;;18.75;56.98;99626.92;431133;1271;140940;-59
2022/08/29 17:59:32;;;;;;;8.10;3.10;;;;;;;18.41;57.65;99633.71;436801;1271;141965;-59
2022/08/29 18:09:38;;;;;;;5.60;2.30;;;;;;;18.10;58.44;99637.85;434752;1271;141726;-61
2022/08/29 18:19:44;;;;;;;5.10;2.90;;;;;;;17.82;59.48;99650.00;440721;1271;147510;-58
2022/08/29 18:29:50;;;;;;;6.70;2.60;;;;;;;17.54;60.46;99663.75;434893;1270;148329;-58
2022/08/29 18:39:56;;;;;;;5.30;3.30;;;;;;;17.26;61.28;99669.59;430300;1271;1580759;-59
2022/08/29 19:00:30;;;;;;;3.70;3.10;;;;;;;16.65;63.53;99686.52;431742;1271;141927;-57
2022/08/29 19:10:36;;;;;;;6.40;2.50;;;;;;;16.35;64.50;99690.15;431550;1271;141393;-60
2022/08/29 19:31:06;;;;;;;3.50;2.70;;;;;;;15.84;66.08;99704.14;431470;1271;143027;-61
2022/08/29 19:41:14;;;;;;;4.90;3.30;;;;;;;15.65;67.04;99706.23;431004;1272;142000;-59
2022/08/29 19:51:22;;;;;;;9.10;4.10;;;;;;;15.47;67.89;99707.89;431039;1271;143809;-59
2022/08/29 20:01:30;;;;;;;5.70;2.70;;;;;;;15.30;68.61;99715.44;431063;1271;144535;-58
2022/08/29 20:11:36;;;;;;;6.50;3.40;;;;;;;15.14;69.42;99721.72;430407;1271;141879;-59
2022/08/29 20:21:49;;;;;;;6.20;3.70;;;;;;;15.02;69.96;99723.56;430999;1271;142608;-60
2022/08/29 20:31:55;;;;;;;9.60;4.10;;;;;;;14.86;70.55;99727.58;430408;1271;143329;-58
2022/08/29 20:42:01;;;;;;;3.50;2.70;;;;;;;14.69;71.18;99744.80;431062;1271;146242;-59
2022/08/29 20:52:07;;;;;;;9.20;4.10;;;;;;;14.53;71.78;99751.86;430539;1271;144277;-59
2022/08/29 21:02:15;;;;;;;5.20;3.10;;;;;;;14.39;72.46;99747.08;430666;1271;142345;-58
2022/08/29 21:12:22;;;;;;;9.70;4.10;;;;;;;14.29;72.95;99743.09;430345;1271;142496;-58
2022/08/29 21:22:32;;;;;;;8.20;3.50;;;;;;;14.21;73.41;99746.19;431223;1271;198586;-59
2022/08/29 21:32:38;;;;;;;7.60;3.50;;;;;;;14.19;73.77;99748.27;430597;1271;143585;-59
2022/08/29 21:42:44;;;;;;;5.50;3.50;;;;;;;14.18;74.19;99755.96;430471;1271;143540;-59
2022/08/29 21:52:50;;;;;;;5.50;4.10;;;;;;;14.15;74.46;99759.48;440427;1271;142576;-59
2022/08/29 22:02:56;;;;;;;4.60;4.10;;;;;;;14.13;74.87;99759.08;447268;1270;143230;-59
2022/08/29 22:13:04;;;;;;;7.30;4.90;;;;;;;14.12;75.32;99758.42;436218;1270;145782;-59
2022/08/29 22:23:11;;;;;;;5.90;3.70;;;;;;;14.07;75.61;99762.21;430896;1271;145361;-59
2022/08/29 22:33:19;;;;;;;5.70;4.70;;;;;;;13.97;76.18;99766.67;430694;1271;142731;-59
2022/08/29 22:43:27;;;;;;;6.10;4.00;;;;;;;13.90;76.64;99759.77;431062;1271;142232;-60
2022/08/29 22:53:33;;;;;;;5.30;4.60;;;;;;;13.81;76.84;99763.59;430963;1271;144005;-60
2022/08/29 23:03:39;;;;;;;5.30;3.80;;;;;;;13.70;77.20;99761.26;431034;1271;143372;-59
2022/08/29 23:13:46;;;;;;;6.80;4.30;;;;;;;13.61;77.67;99767.37;430021;1271;143301;-60
2022/08/29 23:23:54;;;;;;;7.70;4.50;;;;;;;13.52;78.21;99764.66;431031;1271;143373;-58
2022/08/29 23:34:00;;;;;;;6.60;4.30;;;;;;;13.47;78.86;99758.70;431127;1271;146746;-60
2022/08/29 23:44:06;;;;;;;6.30;4.10;;;;;;;13.37;78.82;99757.98;430870;1271;148193;-58
2022/08/29 23:54:12;;;;;;;10.20;6.20;;;;;;;13.28;79.09;99757.26;431389;1271;147785;-58
